createdAt,value
2018-11-28T00:02:16.454Z,8.33
2018-11-28T00:04:46.930Z,12.43
2018-11-28T00:07:34.372Z,13.77
2018-11-28T00:10:04.678Z,9.80
2018-11-28T00:12:36.280Z,24.13
2018-11-28T00:15:07.666Z,7.50
2018-11-28T00:17:37.481Z,6.73
2018-11-28T00:20:12.782Z,9.00
2018-11-28T00:22:42.338Z,15.80
2018-11-28T00:25:13.558Z,6.90
2018-11-28T00:27:45.262Z,9.43
2018-11-28T00:33:14.549Z,7.17
2018-11-28T00:35:44.606Z,8.90
2018-11-28T00:38:15.470Z,13.77
2018-11-28T00:40:45.951Z,11.13
2018-11-28T00:43:16.169Z,4.60
2018-11-28T00:45:45.486Z,5.13
2018-11-28T00:48:15.271Z,7.97
2018-11-28T00:50:44.579Z,8.03
2018-11-28T00:53:14.602Z,6.97
2018-11-28T00:55:48.461Z,17.70
2018-11-28T00:58:14.286Z,9.50
2018-11-28T01:00:43.963Z,7.60
2018-11-28T01:03:13.399Z,5.73
2018-11-28T01:05:43.703Z,6.47
2018-11-28T01:08:15.064Z,12.30
2018-11-28T01:10:44.948Z,5.50
2018-11-28T01:13:14.349Z,9.70
2018-11-28T01:15:44.790Z,7.27
2018-11-28T01:18:14.272Z,7.70
2018-11-28T01:20:45.055Z,8.43
2018-11-28T01:23:15.055Z,6.07
2018-11-28T01:25:44.737Z,7.83
2018-11-28T01:28:15.052Z,4.90
2018-11-28T01:30:45.884Z,4.90
2018-11-28T01:33:15.424Z,11.03
2018-11-28T01:35:45.323Z,5.07
2018-11-28T01:38:15.061Z,5.53
2018-11-28T01:40:46.212Z,8.57
2018-11-28T01:43:16.117Z,8.13
2018-11-28T01:45:45.265Z,5.00
2018-11-28T01:48:14.518Z,5.00
2018-11-28T01:50:44.304Z,7.60
2018-11-28T01:53:14.113Z,16.07
2018-11-28T01:55:45.716Z,5.53
2018-11-28T01:58:16.515Z,5.90
2018-11-28T02:00:47.811Z,5.53
2018-11-28T02:03:17.276Z,5.53
2018-11-28T02:05:46.496Z,10.33
2018-11-28T02:08:16.163Z,6.67
2018-11-28T02:10:45.209Z,5.13
2018-11-28T02:13:16.654Z,9.13
2018-11-28T02:15:46.298Z,6.77
2018-11-28T02:18:15.668Z,4.47
2018-11-28T02:20:46.774Z,4.93
2018-11-28T02:23:16.700Z,5.95
2018-11-28T02:25:46.790Z,4.70
2018-11-28T02:28:16.286Z,4.60
2018-11-28T02:30:46.420Z,7.33
2018-11-28T02:33:16.666Z,4.40
2018-11-28T02:35:45.929Z,5.80
2018-11-28T02:38:15.425Z,7.27
2018-11-28T02:40:45.656Z,6.50
2018-11-28T02:43:15.330Z,9.17
2018-11-28T02:45:50.678Z,6.00
2018-11-28T02:48:20.056Z,7.60
2018-11-28T02:50:49.388Z,7.40
2018-11-28T02:53:19.194Z,4.07
2018-11-28T02:55:49.760Z,6.40
2018-11-28T02:58:20.500Z,3.77
2018-11-28T03:00:49.802Z,6.03
2018-11-28T03:03:19.207Z,8.20
2018-11-28T03:05:48.445Z,6.30
2018-11-28T03:08:18.796Z,5.30
2018-11-28T03:10:48.280Z,5.83
2018-11-28T03:13:17.790Z,5.37
2018-11-28T03:15:49.598Z,5.27
2018-11-28T03:18:19.235Z,4.43
2018-11-28T03:20:48.381Z,5.07
2018-11-28T03:23:18.196Z,13.20
2018-11-28T03:25:47.653Z,3.77
2018-11-28T03:28:17.232Z,4.20
2018-11-28T03:30:46.608Z,5.50
2018-11-28T03:33:16.096Z,6.00
2018-11-28T03:35:48.454Z,5.43
2018-11-28T03:38:17.952Z,5.07
2018-11-28T03:40:47.413Z,9.13
2018-11-28T03:43:16.706Z,3.07
2018-11-28T03:45:45.993Z,3.10
2018-11-28T03:48:24.206Z,3.80
2018-11-28T03:50:54.665Z,3.23
2018-11-28T03:53:24.459Z,2.80
2018-11-28T03:55:54.779Z,3.80
2018-11-28T03:58:24.755Z,5.10
2018-11-28T04:00:54.353Z,4.90
2018-11-28T04:03:24.124Z,4.33
2018-11-28T04:05:53.947Z,3.66
2018-11-28T04:08:36.433Z,6.83
2018-11-28T04:11:09.485Z,5.30
2018-11-28T04:13:39.588Z,7.60
2018-11-28T04:16:09.444Z,4.10
2018-11-28T04:18:39.119Z,5.20
2018-11-28T04:21:09.969Z,4.40
2018-11-28T04:23:40.640Z,7.03
2018-11-28T04:26:10.461Z,9.03
2018-11-28T04:28:40.362Z,5.20
2018-11-28T04:31:14.636Z,3.80
2018-11-28T04:33:50.869Z,3.78
2018-11-28T04:36:21.334Z,5.40
2018-11-28T04:38:51.803Z,5.47
2018-11-28T04:41:21.590Z,5.93
2018-11-28T04:43:51.249Z,5.23
2018-11-28T04:46:21.203Z,6.57
2018-11-28T04:48:50.679Z,5.50
2018-11-28T04:51:24.306Z,6.10
2018-11-28T04:53:53.732Z,5.30
2018-11-28T04:56:24.010Z,4.93
2018-11-28T04:58:53.807Z,8.93
2018-11-28T05:01:23.650Z,6.00
2018-11-28T05:03:53.845Z,5.80
2018-11-28T05:06:30.186Z,3.73
2018-11-28T05:09:02.939Z,4.30
2018-11-28T05:11:32.557Z,5.77
2018-11-28T05:14:02.912Z,3.77
2018-11-28T05:16:33.403Z,3.90
2018-11-28T05:19:03.864Z,4.03
2018-11-28T05:21:34.375Z,4.00
2018-11-28T05:24:04.494Z,4.05
2018-11-28T05:26:34.942Z,4.40
2018-11-28T05:29:04.791Z,5.57
2018-11-28T05:31:34.475Z,4.63
2018-11-28T05:34:04.523Z,7.90
2018-11-28T05:36:36.910Z,6.80
2018-11-28T05:39:07.128Z,12.80
2018-11-28T05:41:36.663Z,8.00
2018-11-28T05:44:06.503Z,6.20
2018-11-28T05:46:36.402Z,6.03
2018-11-28T05:49:15.288Z,7.60
2018-11-28T05:51:46.235Z,8.90
2018-11-28T05:54:16.555Z,5.10
2018-11-28T05:56:46.024Z,8.20
2018-11-28T05:59:15.818Z,4.67
2018-11-28T06:01:46.208Z,4.53
2018-11-28T06:04:16.267Z,9.27
2018-11-28T06:06:45.812Z,8.43
2018-11-28T06:09:17.415Z,3.87
2018-11-28T06:11:47.631Z,5.23
2018-11-28T06:14:17.719Z,4.73
2018-11-28T06:16:46.894Z,3.87
2018-11-28T06:19:16.563Z,5.17
2018-11-28T06:21:46.377Z,4.47
2018-11-28T06:24:15.972Z,6.70
2018-11-28T06:26:45.731Z,3.03
2018-11-28T06:29:15.453Z,9.33
2018-11-28T06:31:46.123Z,5.57
2018-11-28T06:34:15.645Z,4.67
2018-11-28T06:36:45.351Z,5.37
2018-11-28T06:39:15.056Z,4.27
2018-11-28T06:41:45.547Z,4.05
2018-11-28T06:44:15.286Z,5.73
2018-11-28T06:46:45.341Z,6.67
2018-11-28T06:49:15.229Z,4.77
2018-11-28T06:51:45.448Z,6.57
2018-11-28T06:54:15.670Z,6.27
2018-11-28T06:56:46.352Z,7.87
2018-11-28T06:59:15.836Z,5.40
2018-11-28T07:01:48.096Z,5.37
2018-11-28T07:04:18.661Z,6.90
2018-11-28T07:06:49.916Z,5.93
2018-11-28T07:09:20.261Z,5.37
2018-11-28T07:11:50.166Z,5.70
2018-11-28T07:14:19.994Z,6.70
2018-11-28T07:16:50.701Z,5.93
2018-11-28T07:19:21.166Z,5.77
2018-11-28T07:21:50.923Z,5.75
2018-11-28T07:24:21.067Z,10.50
2018-11-28T07:26:51.231Z,4.60
2018-11-28T07:29:22.029Z,8.37
2018-11-28T07:31:52.542Z,11.33
2018-11-28T07:34:22.932Z,5.10
2018-11-28T07:36:51.998Z,12.00
2018-11-28T07:39:21.803Z,8.17
2018-11-28T07:41:51.877Z,9.05
2018-11-28T07:44:28.762Z,18.70
2018-11-28T07:47:11.174Z,8.53
2018-11-28T07:49:42.452Z,7.97
2018-11-28T07:52:13.021Z,10.93
2018-11-28T07:54:43.990Z,17.40
2018-11-28T07:59:55.128Z,8.37
2018-11-28T08:02:25.521Z,5.37
2018-11-28T08:04:55.874Z,7.10
2018-11-28T08:07:27.202Z,8.00
2018-11-28T08:09:58.885Z,7.77
2018-11-28T08:12:33.991Z,8.27
2018-11-28T08:15:04.482Z,7.00
2018-11-28T08:17:36.337Z,9.60
2018-11-28T08:20:06.885Z,4.70
2018-11-28T08:22:36.672Z,4.87
2018-11-28T08:25:06.614Z,4.30
2018-11-28T08:27:36.616Z,4.63
2018-11-28T08:30:21.104Z,8.20
2018-11-28T08:32:50.460Z,5.10
2018-11-28T08:35:20.316Z,7.67
2018-11-28T08:37:50.896Z,6.83
2018-11-28T08:40:22.002Z,3.60
2018-11-28T08:42:51.658Z,15.40
2018-11-28T08:45:22.387Z,7.40
2018-11-28T08:47:57.435Z,7.10
2018-11-28T08:50:27.540Z,9.40
2018-11-28T08:52:58.084Z,14.70
2018-11-28T08:55:28.053Z,5.73
2018-11-28T08:57:57.769Z,9.67
2018-11-28T09:00:27.925Z,7.73
2018-11-28T09:02:59.082Z,4.60
2018-11-28T09:05:31.674Z,5.50
2018-11-28T09:08:01.869Z,6.10
2018-11-28T09:10:35.490Z,6.33
2018-11-28T09:13:05.170Z,11.80
2018-11-28T09:15:35.413Z,11.60
2018-11-28T09:18:06.293Z,8.50
2018-11-28T09:20:38.302Z,7.37
2018-11-28T09:23:08.803Z,7.67
2018-11-28T09:25:38.597Z,5.80
2018-11-28T09:28:08.646Z,10.80
2018-11-28T09:30:40.290Z,9.30
2018-11-28T09:33:10.531Z,12.17
2018-11-28T09:35:39.884Z,6.53
2018-11-28T09:41:26.657Z,5.60
2018-11-28T09:43:57.337Z,6.80
2018-11-28T09:46:33.049Z,7.53
2018-11-28T09:49:03.153Z,9.53
2018-11-28T09:51:47.862Z,8.67
2018-11-28T09:54:20.359Z,5.80
2018-11-28T09:56:54.209Z,8.50
2018-11-28T09:59:25.854Z,7.63
2018-11-28T10:05:02.547Z,8.10
2018-11-28T10:07:28.521Z,5.57
2018-11-28T10:09:59.091Z,5.47
2018-11-28T10:12:30.773Z,4.27
2018-11-28T10:15:00.862Z,11.20
2018-11-28T10:17:30.944Z,10.80
2018-11-28T10:20:02.051Z,6.60
2018-11-28T10:22:31.946Z,12.47
2018-11-28T10:25:02.955Z,12.03
2018-11-28T10:27:33.029Z,7.77
2018-11-28T10:30:03.449Z,7.20
2018-11-28T10:32:37.033Z,5.87
2018-11-28T10:35:07.683Z,9.30
2018-11-28T10:37:37.541Z,31.13
2018-11-28T10:40:11.928Z,10.20
2018-11-28T10:42:43.456Z,9.00
2018-11-28T10:45:14.364Z,8.13
2018-11-28T10:47:44.031Z,12.00
2018-11-28T10:50:15.397Z,8.10
2018-11-28T10:52:46.089Z,5.17
2018-11-28T10:55:23.890Z,7.10
2018-11-28T10:57:56.765Z,6.97
2018-11-28T11:00:33.072Z,8.13
2018-11-28T11:03:17.999Z,9.70
2018-11-28T11:05:54.164Z,6.30
2018-11-28T11:09:30.264Z,8.77
2018-11-28T11:12:06.796Z,5.50
2018-11-28T11:14:41.636Z,6.50
2018-11-28T11:17:15.365Z,6.80
2018-11-28T11:19:46.139Z,6.93
2018-11-28T11:22:17.189Z,3.97
2018-11-28T11:24:47.078Z,13.60
2018-11-28T11:27:17.890Z,7.50
2018-11-28T11:32:37.733Z,4.47
2018-11-28T11:35:11.710Z,2.60
2018-11-28T11:37:50.347Z,3.60
2018-11-28T11:40:20.024Z,6.40
2018-11-28T11:42:49.983Z,3.95
2018-11-28T11:45:20.006Z,3.70
2018-11-28T11:47:49.518Z,9.00
2018-11-28T11:50:22.040Z,5.90
2018-11-28T11:52:53.299Z,3.90
2018-11-28T11:55:39.994Z,4.77
2018-11-28T11:58:10.680Z,5.90
2018-11-28T12:03:49.359Z,6.13
2018-11-28T12:06:21.286Z,8.17
2018-11-28T12:08:57.200Z,13.33
2018-11-28T12:17:52.756Z,5.20
2018-11-28T12:20:35.255Z,5.83
2018-11-28T12:23:05.002Z,5.53
2018-11-28T12:25:36.731Z,7.90
2018-11-28T12:28:06.985Z,3.73
2018-11-28T12:30:41.448Z,4.97
2018-11-28T12:33:11.735Z,5.60
2018-11-28T12:35:43.213Z,4.03
2018-11-28T12:38:16.752Z,7.73
2018-11-28T12:40:48.344Z,7.17
2018-11-28T12:43:21.084Z,6.40
2018-11-28T12:45:51.880Z,7.90
2018-11-28T12:48:21.828Z,7.47
2018-11-28T12:50:52.472Z,8.75
2018-11-28T12:53:22.240Z,8.60
2018-11-28T12:55:52.758Z,5.13
2018-11-28T12:58:25.927Z,6.87
2018-11-28T13:01:01.792Z,10.63
2018-11-28T13:03:39.573Z,7.23
2018-11-28T13:06:14.812Z,8.00
2018-11-28T13:08:51.505Z,8.17
2018-11-28T13:11:24.340Z,10.37
2018-11-28T13:13:59.064Z,8.57
2018-11-28T13:16:28.537Z,12.43
2018-11-28T13:18:57.951Z,9.63
2018-11-28T13:24:05.632Z,13.73
2018-11-28T13:26:36.063Z,7.73
2018-11-28T13:29:06.106Z,10.90
2018-11-28T13:31:36.216Z,7.70
2018-11-28T13:34:06.345Z,17.47
2018-11-28T13:36:36.407Z,8.50
2018-11-28T13:39:09.485Z,8.07
2018-11-28T13:41:39.072Z,7.40
2018-11-28T13:44:09.320Z,6.80
2018-11-28T13:46:39.944Z,6.87
2018-11-28T13:49:09.497Z,7.03
2018-11-28T13:51:39.576Z,16.00
2018-11-28T13:57:03.924Z,15.93
2018-11-28T13:59:29.767Z,16.77
2018-11-28T14:01:59.411Z,10.90
2018-11-28T14:04:29.304Z,9.40
2018-11-28T14:06:59.021Z,13.97
2018-11-28T14:09:30.561Z,15.53
2018-11-28T14:12:01.463Z,15.97
2018-11-28T14:14:31.121Z,19.80
2018-11-28T14:17:01.433Z,11.10
2018-11-28T14:19:32.504Z,6.90
2018-11-28T14:22:02.179Z,13.20
2018-11-28T14:24:31.886Z,9.67
2018-11-28T14:27:01.776Z,7.43
2018-11-28T14:29:32.402Z,7.03
2018-11-28T14:32:03.090Z,9.43
2018-11-28T14:34:33.010Z,14.33
2018-11-28T14:37:03.903Z,13.10
2018-11-28T14:39:33.207Z,5.30
2018-11-28T14:42:02.812Z,13.07
2018-11-28T14:44:35.487Z,16.43
2018-11-28T14:47:08.594Z,11.40
2018-11-28T14:49:38.620Z,6.80
2018-11-28T14:52:09.328Z,9.00
2018-11-28T14:54:39.118Z,16.57
2018-11-28T14:57:09.100Z,15.90
2018-11-28T14:59:40.636Z,16.20
2018-11-28T15:02:08.359Z,8.50
2018-11-28T15:04:38.612Z,12.07
2018-11-28T15:07:09.063Z,8.20
2018-11-28T15:09:43.989Z,8.10
2018-11-28T15:12:14.062Z,8.93
2018-11-28T15:14:43.294Z,12.37
2018-11-28T15:17:13.562Z,9.50
2018-11-28T15:19:43.998Z,9.50
2018-11-28T15:24:51.861Z,10.43
2018-11-28T15:27:21.518Z,9.20
2018-11-28T15:29:51.085Z,7.03
2018-11-28T15:32:21.552Z,6.03
2018-11-28T15:34:50.968Z,17.40
2018-11-28T15:37:20.523Z,10.47
2018-11-28T15:39:55.670Z,8.90
2018-11-28T15:42:19.875Z,9.20
2018-11-28T15:44:50.103Z,8.43
2018-11-28T15:47:19.569Z,10.33
2018-11-28T15:49:49.647Z,6.53
2018-11-28T15:52:19.005Z,9.00
2018-11-28T15:57:47.214Z,9.07
2018-11-28T16:00:22.553Z,8.80
2018-11-28T16:02:53.086Z,6.60
2018-11-28T16:05:22.627Z,20.10
2018-11-28T16:07:52.002Z,10.93
2018-11-28T16:10:27.874Z,5.80
2018-11-28T16:12:57.363Z,9.20
2018-11-28T16:15:29.188Z,6.07
2018-11-28T16:17:59.339Z,8.40
2018-11-28T16:20:30.024Z,9.07
2018-11-28T16:23:04.265Z,6.80
2018-11-28T16:25:32.771Z,11.83
2018-11-28T16:28:06.389Z,8.87
2018-11-28T16:30:36.025Z,12.40
2018-11-28T16:33:07.082Z,21.10
2018-11-28T16:35:39.105Z,5.77
2018-11-28T16:38:10.358Z,10.67
2018-11-28T16:43:19.249Z,9.57
2018-11-28T16:45:49.903Z,18.97
2018-11-28T16:48:22.060Z,14.20
2018-11-28T16:50:52.085Z,5.40
2018-11-28T16:53:22.272Z,7.30
2018-11-28T16:55:52.172Z,11.47
2018-11-28T16:58:22.077Z,6.97
2018-11-28T17:00:52.270Z,8.90
2018-11-28T17:03:22.868Z,17.90
2018-11-28T17:05:54.203Z,8.93
2018-11-28T17:08:24.662Z,7.83
2018-11-28T17:10:54.737Z,5.87
2018-11-28T17:13:26.769Z,5.73
2018-11-28T17:15:59.871Z,10.95
2018-11-28T17:18:44.047Z,8.90
2018-11-28T17:21:16.655Z,13.27
2018-11-28T17:23:48.108Z,12.13
2018-11-28T17:26:20.904Z,16.53
2018-11-28T17:28:52.811Z,15.50
2018-11-28T17:31:22.372Z,22.73
2018-11-28T17:33:52.377Z,11.70
2018-11-28T17:36:21.770Z,14.20
2018-11-28T17:38:51.235Z,11.37
2018-11-28T17:41:20.789Z,11.33
2018-11-28T17:43:50.272Z,13.87
2018-11-28T17:46:20.075Z,15.17
2018-11-28T17:48:49.744Z,9.03
2018-11-28T17:51:19.403Z,10.70
2018-11-28T17:53:49.179Z,10.33
2018-11-28T17:56:19.296Z,16.00
2018-11-28T17:58:50.853Z,9.00
2018-11-28T18:01:21.457Z,7.93
2018-11-28T18:03:50.946Z,22.30
2018-11-28T18:06:22.571Z,10.57
2018-11-28T18:08:52.263Z,12.83
2018-11-28T18:11:22.120Z,14.50
2018-11-28T18:13:52.019Z,12.00
2018-11-28T18:16:21.689Z,17.53
2018-11-28T18:18:50.828Z,11.60
2018-11-28T18:21:21.079Z,12.33
2018-11-28T18:23:50.367Z,13.27
2018-11-28T18:26:20.147Z,17.27
2018-11-28T18:28:49.678Z,15.50
2018-11-28T18:31:19.310Z,14.20
2018-11-28T18:33:48.840Z,15.77
2018-11-28T18:36:18.691Z,15.37
2018-11-28T18:38:48.566Z,12.27
2018-11-28T18:41:20.197Z,15.83
2018-11-28T18:43:53.885Z,13.77
2018-11-28T18:46:26.270Z,13.68
2018-11-28T18:48:55.628Z,16.37
2018-11-28T18:51:25.482Z,21.37
2018-11-28T18:53:55.050Z,23.53
2018-11-28T18:56:25.415Z,17.30
2018-11-28T18:58:54.787Z,20.63
2018-11-28T19:01:24.251Z,26.10
2018-11-28T19:03:53.812Z,24.43
2018-11-28T19:06:23.999Z,19.47
2018-11-28T19:08:57.348Z,28.73
2018-11-28T19:11:28.133Z,17.50
2018-11-28T19:13:57.890Z,32.23
2018-11-28T19:16:27.659Z,19.63
2018-11-28T19:18:57.821Z,17.23
2018-11-28T19:21:28.026Z,16.00
2018-11-28T19:23:57.238Z,15.53
2018-11-28T19:26:26.992Z,14.93
2018-11-28T19:28:56.918Z,11.90
2018-11-28T19:31:27.632Z,13.17
2018-11-28T19:33:57.371Z,13.32
2018-11-28T19:36:27.231Z,21.10
2018-11-28T19:38:57.055Z,14.97
2018-11-28T19:41:27.470Z,22.87
2018-11-28T19:43:57.776Z,17.53
2018-11-28T19:46:27.755Z,17.13
2018-11-28T19:48:58.307Z,20.30
2018-11-28T19:51:28.752Z,15.90
2018-11-28T19:53:58.941Z,14.23
2018-11-28T19:56:29.066Z,11.97
2018-11-28T19:58:58.859Z,15.23
2018-11-28T20:01:28.913Z,15.27
2018-11-28T20:03:59.054Z,16.97
2018-11-28T20:06:28.705Z,15.97
2018-11-28T20:08:58.744Z,14.83
2018-11-28T20:11:34.430Z,16.70
2018-11-28T20:14:04.451Z,22.20
2018-11-28T20:16:34.077Z,34.80
2018-11-28T20:19:03.714Z,25.60
2018-11-28T20:21:33.193Z,11.77
2018-11-28T20:24:02.809Z,13.20
2018-11-28T20:26:32.611Z,13.80
2018-11-28T20:29:02.047Z,13.40
2018-11-28T20:31:31.579Z,14.60
2018-11-28T20:34:01.759Z,14.43
2018-11-28T20:36:31.488Z,22.97
2018-11-28T20:39:01.267Z,17.53
2018-11-28T20:41:31.371Z,13.93
2018-11-28T20:44:01.483Z,13.90
2018-11-28T20:46:32.230Z,16.93
2018-11-28T20:49:02.004Z,24.43
2018-11-28T21:03:58.030Z,19.63
2018-11-28T21:06:28.702Z,43.23
2018-11-28T21:08:58.449Z,23.07
2018-11-28T21:11:27.880Z,22.50
2018-11-28T21:13:57.847Z,21.23
2018-11-28T21:16:30.081Z,19.40
2018-11-28T21:18:59.876Z,15.40
2018-11-28T21:24:12.880Z,22.33
2018-11-28T21:26:42.408Z,18.23
2018-11-28T21:29:13.568Z,23.60
2018-11-28T21:31:43.725Z,24.00
2018-11-28T21:34:13.209Z,19.10
2018-11-28T21:36:42.632Z,21.90
2018-11-28T21:39:13.118Z,33.23
2018-11-28T21:41:42.888Z,24.90
2018-11-28T21:44:13.214Z,22.70
2018-11-28T21:46:44.541Z,17.80
2018-11-28T21:49:14.163Z,24.53
2018-11-28T21:51:43.524Z,19.67
2018-11-28T21:54:13.878Z,21.97
2018-11-28T21:56:44.049Z,21.30
2018-11-28T21:59:13.281Z,20.93
2018-11-28T22:01:42.616Z,25.30
2018-11-28T22:04:12.602Z,24.97
2018-11-28T22:06:42.060Z,26.77
2018-11-28T22:09:12.948Z,25.67
2018-11-28T22:11:43.305Z,25.00
2018-11-28T22:14:13.920Z,30.57
2018-11-28T22:16:43.397Z,22.47
2018-11-28T22:19:16.538Z,30.00
2018-11-28T22:21:46.400Z,21.93
2018-11-28T22:24:15.984Z,22.50
2018-11-28T22:26:46.064Z,28.53
2018-11-28T22:29:16.137Z,38.53
2018-11-28T22:31:45.967Z,28.40
2018-11-28T22:34:15.056Z,29.17
2018-11-28T22:36:47.274Z,24.40
2018-11-28T22:39:18.064Z,26.50
2018-11-28T22:41:52.012Z,32.87
2018-11-28T22:44:21.515Z,28.67
2018-11-28T22:46:51.744Z,35.03
2018-11-28T22:49:21.114Z,28.55
2018-11-28T22:51:51.320Z,25.67
2018-11-28T22:54:21.260Z,28.07
2018-11-28T22:56:50.751Z,27.10
2018-11-28T22:59:20.436Z,25.94
2018-11-28T23:02:57.752Z,24.30
2018-11-28T23:05:31.761Z,27.73
2018-11-28T23:08:01.659Z,21.77
2018-11-28T23:10:32.803Z,21.33
2018-11-28T23:13:02.117Z,20.97
2018-11-28T23:15:32.937Z,17.43
2018-11-28T23:18:02.698Z,17.33
2018-11-28T23:20:32.553Z,16.10
2018-11-28T23:23:02.497Z,18.87
2018-11-28T23:25:31.888Z,20.37
2018-11-28T23:28:01.969Z,17.23
2018-11-28T23:30:31.265Z,14.90
2018-11-28T23:33:00.837Z,15.73
2018-11-28T23:35:31.373Z,15.33
2018-11-28T23:38:00.922Z,22.23
2018-11-28T23:40:30.237Z,15.73
2018-11-28T23:43:04.528Z,15.33
2018-11-28T23:45:34.238Z,14.10
2018-11-28T23:48:03.625Z,21.97
2018-11-28T23:50:33.130Z,15.03
2018-11-28T23:53:02.799Z,13.90
2018-11-28T23:55:32.205Z,13.73
2018-11-28T23:58:02.155Z,13.00
